sensor_id;sensor_type;location;lat;lon;timestamp;pressure;altitude;pressure_sealevel;temperature;humidity
49515;BME280;35415;47.870;16.058;2023-02-02T00:02:15;97071.91;;;3.88;93.42
49515;BME280;35415;47.870;16.058;2023-02-02T00:04:43;97067.03;;;3.85;93.48
49515;BME280;35415;47.870;16.058;2023-02-02T00:07:10;97052.91;;;3.85;93.48
49515;BME280;35415;47.870;16.058;2023-02-02T00:09:37;97059.50;;;3.82;93.60
49515;BME280;35415;47.870;16.058;2023-02-02T00:12:04;97049.91;;;3.81;94.05
49515;BME280;35415;47.870;16.058;2023-02-02T00:14:31;97051.19;;;3.79;94.63
49515;BME280;35415;47.870;16.058;2023-02-02T00:16:58;97057.31;;;3.79;93.93
49515;BME280;35415;47.870;16.058;2023-02-02T00:19:26;97046.44;;;3.81;94.57
49515;BME280;35415;47.870;16.058;2023-02-02T00:21:56;97050.97;;;3.80;94.23
49515;BME280;35415;47.870;16.058;2023-02-02T00:24:23;97013.56;;;3.63;94.15
49515;BME280;35415;47.870;16.058;2023-02-02T00:26:52;97047.72;;;3.78;94.60
49515;BME280;35415;47.870;16.058;2023-02-02T00:29:20;97026.31;;;3.73;95.12
49515;BME280;35415;47.870;16.058;2023-02-02T00:31:48;97035.94;;;3.74;95.32
49515;BME280;35415;47.870;16.058;2023-02-02T00:34:15;97049.22;;;3.74;95.19
49515;BME280;35415;47.870;16.058;2023-02-02T00:36:43;97058.72;;;3.70;95.40
49515;BME280;35415;47.870;16.058;2023-02-02T00:39:29;97051.84;;;3.62;95.35
49515;BME280;35415;47.870;16.058;2023-02-02T00:41:56;97065.66;;;3.71;94.91
49515;BME280;35415;47.870;16.058;2023-02-02T00:44:23;97082.41;;;3.72;94.46
49515;BME280;35415;47.870;16.058;2023-02-02T00:47:08;97087.16;;;3.70;94.21
49515;BME280;35415;47.870;16.058;2023-02-02T00:49:35;97122.09;;;3.73;94.61
49515;BME280;35415;47.870;16.058;2023-02-02T00:52:02;97146.03;;;3.73;95.89
49515;BME280;35415;47.870;16.058;2023-02-02T00:54:30;97156.66;;;3.73;95.72
49515;BME280;35415;47.870;16.058;2023-02-02T00:56:57;97140.72;;;3.73;95.39
49515;BME280;35415;47.870;16.058;2023-02-02T00:59:24;97123.44;;;3.64;95.72
49515;BME280;35415;47.870;16.058;2023-02-02T01:01:51;97123.34;;;3.71;95.81
49515;BME280;35415;47.870;16.058;2023-02-02T01:04:18;97125.56;;;3.74;96.03
49515;BME280;35415;47.870;16.058;2023-02-02T01:06:45;97110.25;;;3.57;95.80
49515;BME280;35415;47.870;16.058;2023-02-02T01:09:12;97145.22;;;3.73;95.84
49515;BME280;35415;47.870;16.058;2023-02-02T01:11:40;97164.06;;;3.71;95.68
49515;BME280;35415;47.870;16.058;2023-02-02T01:14:07;97154.19;;;3.60;95.66
49515;BME280;35415;47.870;16.058;2023-02-02T01:16:34;97183.56;;;3.65;95.18
49515;BME280;35415;47.870;16.058;2023-02-02T01:19:01;97191.19;;;3.61;95.07
49515;BME280;35415;47.870;16.058;2023-02-02T01:21:28;97149.72;;;3.42;94.95
49515;BME280;35415;47.870;16.058;2023-02-02T01:23:55;97172.69;;;3.55;94.96
49515;BME280;35415;47.870;16.058;2023-02-02T01:26:22;97139.03;;;3.30;94.20
49515;BME280;35415;47.870;16.058;2023-02-02T01:28:51;97175.63;;;3.47;94.37
49515;BME280;35415;47.870;16.058;2023-02-02T01:31:18;97183.25;;;3.43;94.53
49515;BME280;35415;47.870;16.058;2023-02-02T01:33:47;97208.91;;;3.38;94.31
49515;BME280;35415;47.870;16.058;2023-02-02T01:36:16;97202.38;;;3.33;94.16
49515;BME280;35415;47.870;16.058;2023-02-02T01:38:44;97195.88;;;3.29;94.07
49515;BME280;35415;47.870;16.058;2023-02-02T01:41:13;97210.88;;;3.24;94.17
49515;BME280;35415;47.870;16.058;2023-02-02T01:43:51;97197.97;;;3.09;94.46
49515;BME280;35415;47.870;16.058;2023-02-02T01:46:21;97234.88;;;3.17;94.77
49515;BME280;35415;47.870;16.058;2023-02-02T01:48:52;97230.22;;;3.13;94.12
49515;BME280;35415;47.870;16.058;2023-02-02T01:51:33;97245.00;;;3.09;94.36
49515;BME280;35415;47.870;16.058;2023-02-02T01:54:02;97238.72;;;3.03;94.47
49515;BME280;35415;47.870;16.058;2023-02-02T01:56:35;97235.53;;;2.94;94.72
49515;BME280;35415;47.870;16.058;2023-02-02T01:59:06;97234.94;;;2.92;94.96
49515;BME280;35415;47.870;16.058;2023-02-02T02:01:33;97252.75;;;2.85;95.40
49515;BME280;35415;47.870;16.058;2023-02-02T02:04:00;97245.69;;;2.79;95.08
49515;BME280;35415;47.870;16.058;2023-02-02T02:06:27;97218.97;;;2.74;95.63
49515;BME280;35415;47.870;16.058;2023-02-02T02:08:56;97212.47;;;2.70;95.55
49515;BME280;35415;47.870;16.058;2023-02-02T02:11:25;97190.47;;;2.63;95.57
49515;BME280;35415;47.870;16.058;2023-02-02T02:13:55;97196.66;;;2.57;95.98
49515;BME280;35415;47.870;16.058;2023-02-02T02:16:53;97208.34;;;2.49;96.25
49515;BME280;35415;47.870;16.058;2023-02-02T02:19:55;97189.91;;;2.36;96.23
49515;BME280;35415;47.870;16.058;2023-02-02T02:23:10;97213.56;;;2.37;97.02
49515;BME280;35415;47.870;16.058;2023-02-02T02:26:25;97196.88;;;2.30;96.68
49515;BME280;35415;47.870;16.058;2023-02-02T02:32:22;97186.91;;;2.26;97.38
49515;BME280;35415;47.870;16.058;2023-02-02T02:34:57;97193.72;;;2.15;97.76
49515;BME280;35415;47.870;16.058;2023-02-02T02:37:32;97204.31;;;2.22;97.55
49515;BME280;35415;47.870;16.058;2023-02-02T02:40:06;97188.38;;;2.22;97.75
49515;BME280;35415;47.870;16.058;2023-02-02T02:42:41;97194.13;;;2.19;97.89
49515;BME280;35415;47.870;16.058;2023-02-02T02:45:13;97186.78;;;2.14;98.35
49515;BME280;35415;47.870;16.058;2023-02-02T02:47:43;97180.28;;;2.10;98.31
49515;BME280;35415;47.870;16.058;2023-02-02T02:50:15;97187.06;;;2.06;98.54
49515;BME280;35415;47.870;16.058;2023-02-02T02:52:42;97212.19;;;2.03;98.94
49515;BME280;35415;47.870;16.058;2023-02-02T02:55:11;97216.06;;;2.01;99.37
49515;BME280;35415;47.870;16.058;2023-02-02T02:57:51;97198.78;;;1.92;99.51
49515;BME280;35415;47.870;16.058;2023-02-02T03:00:37;97194.25;;;1.99;99.47
49515;BME280;35415;47.870;16.058;2023-02-02T03:03:15;97178.53;;;1.97;99.71
49515;BME280;35415;47.870;16.058;2023-02-02T03:05:50;97188.34;;;1.97;99.96
49515;BME280;35415;47.870;16.058;2023-02-02T03:08:23;97205.28;;;1.96;100.00
49515;BME280;35415;47.870;16.058;2023-02-02T03:10:54;97204.69;;;1.94;100.00
49515;BME280;35415;47.870;16.058;2023-02-02T03:13:24;97177.34;;;1.93;100.00
49515;BME280;35415;47.870;16.058;2023-02-02T03:15:52;97182.88;;;1.92;100.00
49515;BME280;35415;47.870;16.058;2023-02-02T03:18:23;97186.56;;;1.91;100.00
49515;BME280;35415;47.870;16.058;2023-02-02T03:20:52;97208.59;;;1.91;99.96
49515;BME280;35415;47.870;16.058;2023-02-02T03:23:18;97185.53;;;1.92;100.00
49515;BME280;35415;47.870;16.058;2023-02-02T03:25:46;97204.31;;;1.90;100.00
49515;BME280;35415;47.870;16.058;2023-02-02T03:28:13;97195.97;;;1.87;100.00
49515;BME280;35415;47.870;16.058;2023-02-02T03:30:42;97198.63;;;1.87;100.00
49515;BME280;35415;47.870;16.058;2023-02-02T03:33:10;97204.16;;;1.85;100.00
49515;BME280;35415;47.870;16.058;2023-02-02T03:35:39;97187.44;;;1.78;100.00
49515;BME280;35415;47.870;16.058;2023-02-02T03:38:06;97198.22;;;1.83;100.00
49515;BME280;35415;47.870;16.058;2023-02-02T03:40:33;97214.13;;;1.83;100.00
49515;BME280;35415;47.870;16.058;2023-02-02T03:43:00;97205.38;;;1.83;100.00
49515;BME280;35415;47.870;16.058;2023-02-02T03:45:27;97201.91;;;1.82;100.00
49515;BME280;35415;47.870;16.058;2023-02-02T03:47:54;97199.25;;;1.82;100.00
49515;BME280;35415;47.870;16.058;2023-02-02T03:50:21;97211.09;;;1.79;100.00
49515;BME280;35415;47.870;16.058;2023-02-02T03:52:51;97209.03;;;1.81;100.00
49515;BME280;35415;47.870;16.058;2023-02-02T03:55:19;97200.28;;;1.81;100.00
49515;BME280;35415;47.870;16.058;2023-02-02T03:57:47;97203.94;;;1.80;100.00
49515;BME280;35415;47.870;16.058;2023-02-02T04:00:15;97202.31;;;1.79;100.00
49515;BME280;35415;47.870;16.058;2023-02-02T04:02:42;97203.16;;;1.79;100.00
49515;BME280;35415;47.870;16.058;2023-02-02T04:05:09;97197.84;;;1.79;100.00
49515;BME280;35415;47.870;16.058;2023-02-02T04:07:36;97203.16;;;1.79;100.00
49515;BME280;35415;47.870;16.058;2023-02-02T04:10:05;97191.94;;;1.77;100.00
49515;BME280;35415;47.870;16.058;2023-02-02T04:12:32;97181.34;;;1.77;100.00
49515;BME280;35415;47.870;16.058;2023-02-02T04:14:59;97188.25;;;1.78;100.00
49515;BME280;35415;47.870;16.058;2023-02-02T04:17:26;97169.91;;;1.77;100.00
49515;BME280;35415;47.870;16.058;2023-02-02T04:19:52;97213.00;;;1.72;100.00
49515;BME280;35415;47.870;16.058;2023-02-02T04:22:22;97223.97;;;1.76;100.00
49515;BME280;35415;47.870;16.058;2023-02-02T04:24:50;97212.56;;;1.75;100.00
49515;BME280;35415;47.870;16.058;2023-02-02T04:27:18;97199.34;;;1.69;100.00
49515;BME280;35415;47.870;16.058;2023-02-02T04:29:45;97225.81;;;1.75;100.00
49515;BME280;35415;47.870;16.058;2023-02-02T04:32:14;97230.13;;;1.70;100.00
49515;BME280;35415;47.870;16.058;2023-02-02T04:34:41;97250.09;;;1.72;100.00
49515;BME280;35415;47.870;16.058;2023-02-02T04:37:08;97245.63;;;1.73;100.00
49515;BME280;35415;47.870;16.058;2023-02-02T04:39:36;97244.00;;;1.72;100.00
49515;BME280;35415;47.870;16.058;2023-02-02T04:42:03;97238.69;;;1.72;100.00
49515;BME280;35415;47.870;16.058;2023-02-02T04:44:32;97265.41;;;1.70;100.00
49515;BME280;35415;47.870;16.058;2023-02-02T04:46:59;97263.78;;;1.69;100.00
49515;BME280;35415;47.870;16.058;2023-02-02T04:49:26;97240.97;;;1.68;100.00
49515;BME280;35415;47.870;16.058;2023-02-02T04:51:53;97231.97;;;1.69;100.00
49515;BME280;35415;47.870;16.058;2023-02-02T04:54:20;97234.81;;;1.68;100.00
49515;BME280;35415;47.870;16.058;2023-02-02T04:56:47;97221.00;;;1.59;100.00
49515;BME280;35415;47.870;16.058;2023-02-02T04:59:14;97221.38;;;1.63;100.00
49515;BME280;35415;47.870;16.058;2023-02-02T05:01:42;97237.88;;;1.65;100.00
49515;BME280;35415;47.870;16.058;2023-02-02T05:04:10;97233.03;;;1.62;100.00
49515;BME280;35415;47.870;16.058;2023-02-02T05:06:37;97210.81;;;1.56;100.00
49515;BME280;35415;47.870;16.058;2023-02-02T05:09:04;97228.53;;;1.62;100.00
49515;BME280;35415;47.870;16.058;2023-02-02T05:11:31;97242.38;;;1.64;100.00
49515;BME280;35415;47.870;16.058;2023-02-02T05:13:58;97246.91;;;1.57;100.00
49515;BME280;35415;47.870;16.058;2023-02-02T05:16:25;97253.19;;;1.63;100.00
49515;BME280;35415;47.870;16.058;2023-02-02T05:18:55;97261.97;;;1.63;100.00
49515;BME280;35415;47.870;16.058;2023-02-02T05:21:24;97256.28;;;1.60;100.00
49515;BME280;35415;47.870;16.058;2023-02-02T05:23:50;97254.22;;;1.62;100.00
49515;BME280;35415;47.870;16.058;2023-02-02T05:26:20;97259.34;;;1.57;100.00
49515;BME280;35415;47.870;16.058;2023-02-02T05:28:48;97265.84;;;1.61;100.00
49515;BME280;35415;47.870;16.058;2023-02-02T05:31:16;97270.34;;;1.60;100.00
49515;BME280;35415;47.870;16.058;2023-02-02T05:33:43;97249.13;;;1.60;100.00
49515;BME280;35415;47.870;16.058;2023-02-02T05:36:12;97252.59;;;1.61;100.00
49515;BME280;35415;47.870;16.058;2023-02-02T05:38:39;97250.56;;;1.63;100.00
49515;BME280;35415;47.870;16.058;2023-02-02T05:41:06;97232.22;;;1.61;100.00
49515;BME280;35415;47.870;16.058;2023-02-02T05:43:33;97251.16;;;1.65;100.00
49515;BME280;35415;47.870;16.058;2023-02-02T05:46:00;97240.75;;;1.63;100.00
49515;BME280;35415;47.870;16.058;2023-02-02T05:48:28;97273.78;;;1.67;100.00
49515;BME280;35415;47.870;16.058;2023-02-02T05:50:58;97263.97;;;1.68;100.00
49515;BME280;35415;47.870;16.058;2023-02-02T05:53:29;97253.38;;;1.68;100.00
49515;BME280;35415;47.870;16.058;2023-02-02T05:55:56;97263.97;;;1.68;100.00
49515;BME280;35415;47.870;16.058;2023-02-02T05:58:23;97266.44;;;1.69;100.00
49515;BME280;35415;47.870;16.058;2023-02-02T06:00:52;97269.09;;;1.69;100.00
49515;BME280;35415;47.870;16.058;2023-02-02T06:03:19;97283.16;;;1.70;100.00
49515;BME280;35415;47.870;16.058;2023-02-02T06:05:47;97258.94;;;1.60;100.00
49515;BME280;35415;47.870;16.058;2023-02-02T06:08:14;97264.41;;;1.71;100.00
49515;BME280;35415;47.870;16.058;2023-02-02T06:10:42;97262.78;;;1.70;100.00
49515;BME280;35415;47.870;16.058;2023-02-02T06:13:09;97254.81;;;1.70;100.00
49515;BME280;35415;47.870;16.058;2023-02-02T06:15:37;97267.03;;;1.71;100.00
49515;BME280;35415;47.870;16.058;2023-02-02T06:18:04;97272.56;;;1.70;100.00
49515;BME280;35415;47.870;16.058;2023-02-02T06:20:33;97289.50;;;1.69;100.00
49515;BME280;35415;47.870;16.058;2023-02-02T06:23:00;97268.28;;;1.62;100.00
49515;BME280;35415;47.870;16.058;2023-02-02T06:25:27;97284.19;;;1.69;100.00
49515;BME280;35415;47.870;16.058;2023-02-02T06:27:57;97293.16;;;1.68;100.00
49515;BME280;35415;47.870;16.058;2023-02-02T06:30:25;97312.72;;;1.67;100.00
49515;BME280;35415;47.870;16.058;2023-02-02T06:32:52;97308.44;;;1.66;100.00
49515;BME280;35415;47.870;16.058;2023-02-02T06:35:19;97324.34;;;1.66;100.00
49515;BME280;35415;47.870;16.058;2023-02-02T06:37:47;97310.50;;;1.64;100.00
49515;BME280;35415;47.870;16.058;2023-02-02T06:40:15;97310.50;;;1.64;100.00
49515;BME280;35415;47.870;16.058;2023-02-02T06:42:42;97309.91;;;1.62;100.00
49515;BME280;35415;47.870;16.058;2023-02-02T06:45:11;97315.19;;;1.62;100.00
49515;BME280;35415;47.870;16.058;2023-02-02T06:47:38;97311.34;;;1.51;100.00
49515;BME280;35415;47.870;16.058;2023-02-02T06:50:05;97321.53;;;1.61;100.00
49515;BME280;35415;47.870;16.058;2023-02-02T06:52:33;97336.84;;;1.59;100.00
49515;BME280;35415;47.870;16.058;2023-02-02T06:55:00;97324.41;;;1.59;100.00
49515;BME280;35415;47.870;16.058;2023-02-02T06:57:27;97338.69;;;1.58;100.00
49515;BME280;35415;47.870;16.058;2023-02-02T06:59:54;97316.25;;;1.47;100.00
49515;BME280;35415;47.870;16.058;2023-02-02T07:02:22;97328.88;;;1.59;100.00
49515;BME280;35415;47.870;16.058;2023-02-02T07:04:50;97331.53;;;1.59;100.00
49515;BME280;35415;47.870;16.058;2023-02-02T07:07:17;97321.56;;;1.47;100.00
49515;BME280;35415;47.870;16.058;2023-02-02T07:09:44;97337.84;;;1.58;100.00
49515;BME280;35415;47.870;16.058;2023-02-02T07:12:11;97340.50;;;1.58;100.00
49515;BME280;35415;47.870;16.058;2023-02-02T07:14:38;97348.47;;;1.58;100.00
49515;BME280;35415;47.870;16.058;2023-02-02T07:17:05;97346.84;;;1.57;100.00
49515;BME280;35415;47.870;16.058;2023-02-02T07:19:33;97349.06;;;1.60;100.00
49515;BME280;35415;47.870;16.058;2023-02-02T07:22:00;97358.66;;;1.61;100.00
49515;BME280;35415;47.870;16.058;2023-02-02T07:24:27;97368.84;;;1.64;100.00
49515;BME280;35415;47.870;16.058;2023-02-02T07:26:54;97351.50;;;1.61;100.00
49515;BME280;35415;47.870;16.058;2023-02-02T07:29:22;97352.09;;;1.63;100.00
49515;BME280;35415;47.870;16.058;2023-02-02T07:31:49;97359.03;;;1.64;100.00
49515;BME280;35415;47.870;16.058;2023-02-02T07:34:17;97357.81;;;1.67;100.00
49515;BME280;35415;47.870;16.058;2023-02-02T07:36:45;97374.13;;;1.70;100.00
49515;BME280;35415;47.870;16.058;2023-02-02T07:39:12;97364.34;;;1.71;100.00
49515;BME280;35415;47.870;16.058;2023-02-02T07:41:39;97375.56;;;1.73;100.00
49515;BME280;35415;47.870;16.058;2023-02-02T07:44:11;97353.72;;;1.71;100.00
49515;BME280;35415;47.870;16.058;2023-02-02T07:46:40;97373.69;;;1.80;100.00
49515;BME280;35415;47.870;16.058;2023-02-02T07:49:11;97378.38;;;1.78;100.00
49515;BME280;35415;47.870;16.058;2023-02-02T07:51:40;97383.91;;;1.76;100.00
49515;BME280;35415;47.870;16.058;2023-02-02T07:54:09;97401.44;;;1.77;100.00
49515;BME280;35415;47.870;16.058;2023-02-02T07:56:37;97393.69;;;1.76;100.00
49515;BME280;35415;47.870;16.058;2023-02-02T07:59:04;97400.00;;;1.81;100.00
49515;BME280;35415;47.870;16.058;2023-02-02T08:01:32;97410.59;;;1.81;100.00
49515;BME280;35415;47.870;16.058;2023-02-02T08:03:59;97412.00;;;1.84;100.00
49515;BME280;35415;47.870;16.058;2023-02-02T08:06:29;97386.13;;;1.86;100.00
49515;BME280;35415;47.870;16.058;2023-02-02T08:08:58;97399.78;;;1.90;100.00
49515;BME280;35415;47.870;16.058;2023-02-02T08:11:27;97403.41;;;1.95;100.00
49515;BME280;35415;47.870;16.058;2023-02-02T08:13:56;97376.72;;;1.90;100.00
49515;BME280;35415;47.870;16.058;2023-02-02T08:16:24;97403.22;;;2.03;100.00
49515;BME280;35415;47.870;16.058;2023-02-02T08:18:52;97407.66;;;2.09;100.00
49515;BME280;35415;47.870;16.058;2023-02-02T08:21:19;97407.84;;;2.15;100.00
49515;BME280;35415;47.870;16.058;2023-02-02T08:23:46;97403.97;;;2.10;100.00
49515;BME280;35415;47.870;16.058;2023-02-02T08:26:15;97418.22;;;2.23;99.99
49515;BME280;35415;47.870;16.058;2023-02-02T08:28:46;97419.44;;;2.27;100.00
49515;BME280;35415;47.870;16.058;2023-02-02T08:31:16;97415.75;;;2.28;100.00
49515;BME280;35415;47.870;16.058;2023-02-02T08:33:44;97426.31;;;2.34;100.00
49515;BME280;35415;47.870;16.058;2023-02-02T08:36:12;97427.97;;;2.35;99.25
49515;BME280;35415;47.870;16.058;2023-02-02T08:38:40;97434.50;;;2.39;99.29
49515;BME280;35415;47.870;16.058;2023-02-02T08:41:09;97426.91;;;2.43;100.00
49515;BME280;35415;47.870;16.058;2023-02-02T08:43:37;97427.09;;;2.48;99.39
49515;BME280;35415;47.870;16.058;2023-02-02T08:46:07;97424.81;;;2.52;99.99
49515;BME280;35415;47.870;16.058;2023-02-02T08:48:35;97434.00;;;2.56;99.22
49515;BME280;35415;47.870;16.058;2023-02-02T08:51:03;97419.47;;;2.58;99.95
49515;BME280;35415;47.870;16.058;2023-02-02T08:53:30;97426.22;;;2.61;98.66
49515;BME280;35415;47.870;16.058;2023-02-02T08:55:58;97435.59;;;2.63;98.80
49515;BME280;35415;47.870;16.058;2023-02-02T08:58:27;97427.41;;;2.65;98.02
49515;BME280;35415;47.870;16.058;2023-02-02T09:01:03;97424.16;;;2.63;98.47
49515;BME280;35415;47.870;16.058;2023-02-02T09:03:32;97416.16;;;2.69;97.42
49515;BME280;35415;47.870;16.058;2023-02-02T09:06:03;97409.69;;;2.59;96.42
49515;BME280;35415;47.870;16.058;2023-02-02T09:08:30;97423.25;;;2.76;95.98
49515;BME280;35415;47.870;16.058;2023-02-02T09:11:05;97423.84;;;2.78;95.04
49515;BME280;35415;47.870;16.058;2023-02-02T09:13:32;97426.91;;;2.81;94.33
49515;BME280;35415;47.870;16.058;2023-02-02T09:16:00;97427.91;;;2.87;96.69
49515;BME280;35415;47.870;16.058;2023-02-02T09:18:27;97423.19;;;2.89;95.39
49515;BME280;35415;47.870;16.058;2023-02-02T09:20:58;97397.09;;;2.79;93.90
49515;BME280;35415;47.870;16.058;2023-02-02T09:23:28;97441.50;;;2.97;94.81
49515;BME280;35415;47.870;16.058;2023-02-02T09:25:56;97431.47;;;2.99;94.16
49515;BME280;35415;47.870;16.058;2023-02-02T09:28:23;97433.69;;;3.02;93.90
49515;BME280;35415;47.870;16.058;2023-02-02T09:30:50;97436.97;;;3.04;93.91
49515;BME280;35415;47.870;16.058;2023-02-02T09:33:17;97441.88;;;3.07;94.83
49515;BME280;35415;47.870;16.058;2023-02-02T09:35:44;97449.63;;;3.09;94.64
49515;BME280;35415;47.870;16.058;2023-02-02T09:38:12;97443.06;;;3.11;93.43
49515;BME280;35415;47.870;16.058;2023-02-02T09:40:40;97441.00;;;3.13;92.25
49515;BME280;35415;47.870;16.058;2023-02-02T09:43:20;97448.31;;;3.18;91.63
49515;BME280;35415;47.870;16.058;2023-02-02T09:45:55;97439.13;;;3.20;92.66
49515;BME280;35415;47.870;16.058;2023-02-02T09:48:27;97451.97;;;3.23;91.28
49515;BME280;35415;47.870;16.058;2023-02-02T09:51:00;97448.88;;;3.26;90.27
49515;BME280;35415;47.870;16.058;2023-02-02T09:53:39;97445.13;;;3.34;89.13
49515;BME280;35415;47.870;16.058;2023-02-02T09:56:15;97439.75;;;3.41;89.57
49515;BME280;35415;47.870;16.058;2023-02-02T09:58:48;97428.69;;;3.44;88.48
49515;BME280;35415;47.870;16.058;2023-02-02T10:01:21;97434.16;;;3.49;88.49
49515;BME280;35415;47.870;16.058;2023-02-02T10:03:57;97435.97;;;3.55;88.59
49515;BME280;35415;47.870;16.058;2023-02-02T10:06:33;97440.63;;;3.59;87.92
49515;BME280;35415;47.870;16.058;2023-02-02T10:09:10;97424.00;;;3.64;87.89
49515;BME280;35415;47.870;16.058;2023-02-02T10:11:48;97436.03;;;3.67;87.93
49515;BME280;35415;47.870;16.058;2023-02-02T10:14:25;97441.53;;;3.72;86.99
49515;BME280;35415;47.870;16.058;2023-02-02T10:16:56;97442.94;;;3.74;87.93
49515;BME280;35415;47.870;16.058;2023-02-02T10:19:26;97447.00;;;3.77;86.98
49515;BME280;35415;47.870;16.058;2023-02-02T10:22:01;97432.66;;;3.78;86.77
49515;BME280;35415;47.870;16.058;2023-02-02T10:24:33;97437.53;;;3.81;86.35
49515;BME280;35415;47.870;16.058;2023-02-02T10:27:03;97441.03;;;3.81;85.87
49515;BME280;35415;47.870;16.058;2023-02-02T10:29:38;97438.13;;;3.83;84.26
49515;BME280;35415;47.870;16.058;2023-02-02T10:32:14;97430.97;;;3.83;85.00
49515;BME280;35415;47.870;16.058;2023-02-02T10:35:02;97423.72;;;3.72;84.49
49515;BME280;35415;47.870;16.058;2023-02-02T10:37:37;97443.69;;;3.81;84.51
49515;BME280;35415;47.870;16.058;2023-02-02T10:40:16;97432.81;;;3.83;84.63
49515;BME280;35415;47.870;16.058;2023-02-02T10:42:57;97434.06;;;3.80;83.52
49515;BME280;35415;47.870;16.058;2023-02-02T10:45:47;97437.53;;;3.81;83.13
49515;BME280;35415;47.870;16.058;2023-02-02T10:48:18;97409.66;;;3.65;83.13
49515;BME280;35415;47.870;16.058;2023-02-02T10:50:48;97431.41;;;3.80;84.02
49515;BME280;35415;47.870;16.058;2023-02-02T10:53:18;97433.84;;;3.82;83.91
49515;BME280;35415;47.870;16.058;2023-02-02T10:55:52;97418.19;;;3.74;83.55
49515;BME280;35415;47.870;16.058;2023-02-02T10:58:25;97438.94;;;3.83;83.19
49515;BME280;35415;47.870;16.058;2023-02-02T11:00:55;97450.03;;;3.80;82.82
49515;BME280;35415;47.870;16.058;2023-02-02T11:03:27;97449.22;;;3.80;82.98
49515;BME280;35415;47.870;16.058;2023-02-02T11:05:57;97437.53;;;3.81;82.66
49515;BME280;35415;47.870;16.058;2023-02-02T11:08:44;97433.69;;;3.77;82.88
49515;BME280;35415;47.870;16.058;2023-02-02T11:11:21;97432.06;;;3.76;82.00
49515;BME280;35415;47.870;16.058;2023-02-02T11:13:53;97420.03;;;3.73;82.57
49515;BME280;35415;47.870;16.058;2023-02-02T11:16:25;97437.41;;;3.76;81.71
49515;BME280;35415;47.870;16.058;2023-02-02T11:18:52;97420.88;;;3.67;81.72
49515;BME280;35415;47.870;16.058;2023-02-02T11:21:22;97427.19;;;3.73;81.62
49515;BME280;35415;47.870;16.058;2023-02-02T11:23:53;97421.88;;;3.73;81.36
49515;BME280;35415;47.870;16.058;2023-02-02T11:26:23;97410.69;;;3.64;81.42
49515;BME280;35415;47.870;16.058;2023-02-02T11:28:51;97424.13;;;3.69;81.25
49515;BME280;35415;47.870;16.058;2023-02-02T11:31:37;97436.84;;;3.67;82.22
49515;BME280;35415;47.870;16.058;2023-02-02T11:34:23;97426.22;;;3.67;82.47
49515;BME280;35415;47.870;16.058;2023-02-02T11:36:58;97433.97;;;3.69;81.85
49515;BME280;35415;47.870;16.058;2023-02-02T11:39:26;97435.22;;;3.66;81.68
49515;BME280;35415;47.870;16.058;2023-02-02T11:42:12;97433.00;;;3.63;81.81
49515;BME280;35415;47.870;16.058;2023-02-02T11:44:43;97431.16;;;3.63;81.58
49515;BME280;35415;47.870;16.058;2023-02-02T11:47:18;97438.31;;;3.63;82.52
49515;BME280;35415;47.870;16.058;2023-02-02T11:49:46;97434.03;;;3.62;82.08
49515;BME280;35415;47.870;16.058;2023-02-02T11:52:18;97413.88;;;3.54;82.36
49515;BME280;35415;47.870;16.058;2023-02-02T11:54:49;97426.66;;;3.64;81.80
49515;BME280;35415;47.870;16.058;2023-02-02T11:57:20;97412.75;;;3.62;82.28
49515;BME280;35415;47.870;16.058;2023-02-02T11:59:48;97417.06;;;3.63;81.99
49515;BME280;35415;47.870;16.058;2023-02-02T12:02:27;97423.41;;;3.62;81.93
49515;BME280;35415;47.870;16.058;2023-02-02T12:05:12;97416.25;;;3.62;82.02
49515;BME280;35415;47.870;16.058;2023-02-02T12:07:41;97421.56;;;3.62;81.82
49515;BME280;35415;47.870;16.058;2023-02-02T12:10:16;97419.13;;;3.61;82.04
49515;BME280;35415;47.870;16.058;2023-02-02T12:12:55;97407.88;;;3.59;82.17
49515;BME280;35415;47.870;16.058;2023-02-02T12:15:32;97413.22;;;3.59;82.74
49515;BME280;35415;47.870;16.058;2023-02-02T12:18:07;97407.66;;;3.60;82.35
49515;BME280;35415;47.870;16.058;2023-02-02T12:20:49;97420.38;;;3.58;83.21
49515;BME280;35415;47.870;16.058;2023-02-02T12:23:31;97414.47;;;3.56;83.45
49515;BME280;35415;47.870;16.058;2023-02-02T12:26:14;97408.59;;;3.48;83.64
49515;BME280;35415;47.870;16.058;2023-02-02T12:29:08;97427.75;;;3.56;83.29
49515;BME280;35415;47.870;16.058;2023-02-02T12:31:47;97418.97;;;3.56;83.49
49515;BME280;35415;47.870;16.058;2023-02-02T12:34:25;97426.72;;;3.57;84.13
49515;BME280;35415;47.870;16.058;2023-02-02T12:37:02;97434.72;;;3.57;83.44
49515;BME280;35415;47.870;16.058;2023-02-02T12:39:43;97419.22;;;3.48;83.83
49515;BME280;35415;47.870;16.058;2023-02-02T12:42:27;97433.69;;;3.58;84.36
49515;BME280;35415;47.870;16.058;2023-02-02T12:48:33;97431.81;;;3.59;83.90
49515;BME280;35415;47.870;16.058;2023-02-02T12:51:16;97439.22;;;3.57;84.13
49515;BME280;35415;47.870;16.058;2023-02-02T12:53:59;97431.00;;;3.58;84.59
49515;BME280;35415;47.870;16.058;2023-02-02T12:56:34;97444.91;;;3.60;84.65
49515;BME280;35415;47.870;16.058;2023-02-02T12:59:13;97430.19;;;3.58;84.48
49515;BME280;35415;47.870;16.058;2023-02-02T13:01:58;97439.81;;;3.59;84.84
49515;BME280;35415;47.870;16.058;2023-02-02T13:04:43;97435.31;;;3.59;83.63
49515;BME280;35415;47.870;16.058;2023-02-02T13:07:26;97430.78;;;3.60;84.07
49515;BME280;35415;47.870;16.058;2023-02-02T13:10:07;97444.09;;;3.60;84.70
49515;BME280;35415;47.870;16.058;2023-02-02T13:12:41;97447.78;;;3.59;83.64
49515;BME280;35415;47.870;16.058;2023-02-02T13:15:13;97446.97;;;3.58;84.53
49515;BME280;35415;47.870;16.058;2023-02-02T13:17:46;97446.16;;;3.58;84.85
49515;BME280;35415;47.870;16.058;2023-02-02T13:20:24;97446.16;;;3.58;84.63
49515;BME280;35415;47.870;16.058;2023-02-02T13:22:57;97450.66;;;3.57;85.49